sensor_id;sensor_type;location;lat;lon;timestamp;temperature;humidity
16736;DHT22;17990;49.548;9.730;2023-08-01T00:00:07;17.50;99.90
16736;DHT22;17990;49.548;9.730;2023-08-01T00:02:34;17.50;99.90
16736;DHT22;17990;49.548;9.730;2023-08-01T00:05:00;17.50;99.90
16736;DHT22;17990;49.548;9.730;2023-08-01T00:07:28;17.50;99.90
16736;DHT22;17990;49.548;9.730;2023-08-01T00:09:54;17.50;99.90
16736;DHT22;17990;49.548;9.730;2023-08-01T00:12:23;17.40;99.90
16736;DHT22;17990;49.548;9.730;2023-08-01T00:14:50;17.40;99.90
16736;DHT22;17990;49.548;9.730;2023-08-01T00:17:17;17.50;99.90
16736;DHT22;17990;49.548;9.730;2023-08-01T00:19:44;17.60;99.90
16736;DHT22;17990;49.548;9.730;2023-08-01T00:22:10;17.60;99.90
16736;DHT22;17990;49.548;9.730;2023-08-01T00:24:37;17.60;99.90
16736;DHT22;17990;49.548;9.730;2023-08-01T00:27:04;17.60;99.90
16736;DHT22;17990;49.548;9.730;2023-08-01T00:29:36;17.60;99.90
16736;DHT22;17990;49.548;9.730;2023-08-01T00:32:03;17.70;99.90
16736;DHT22;17990;49.548;9.730;2023-08-01T00:34:29;17.70;99.90
16736;DHT22;17990;49.548;9.730;2023-08-01T00:36:56;17.60;99.90
16736;DHT22;17990;49.548;9.730;2023-08-01T00:39:23;17.60;99.90
16736;DHT22;17990;49.548;9.730;2023-08-01T00:41:50;17.60;99.90
16736;DHT22;17990;49.548;9.730;2023-08-01T00:44:16;17.60;99.90
16736;DHT22;17990;49.548;9.730;2023-08-01T00:46:44;17.60;99.90
16736;DHT22;17990;49.548;9.730;2023-08-01T00:49:11;17.60;99.90
16736;DHT22;17990;49.548;9.730;2023-08-01T00:51:38;17.60;99.90
16736;DHT22;17990;49.548;9.730;2023-08-01T00:54:05;17.60;99.90
16736;DHT22;17990;49.548;9.730;2023-08-01T00:56:32;17.60;99.90
16736;DHT22;17990;49.548;9.730;2023-08-01T00:59:00;17.60;99.90
16736;DHT22;17990;49.548;9.730;2023-08-01T01:01:27;17.70;99.90
16736;DHT22;17990;49.548;9.730;2023-08-01T01:03:55;17.60;99.90
16736;DHT22;17990;49.548;9.730;2023-08-01T01:06:25;17.70;99.90
16736;DHT22;17990;49.548;9.730;2023-08-01T01:08:54;17.70;99.90
16736;DHT22;17990;49.548;9.730;2023-08-01T01:11:22;17.70;99.90
16736;DHT22;17990;49.548;9.730;2023-08-01T01:13:48;17.70;99.90
16736;DHT22;17990;49.548;9.730;2023-08-01T01:16:18;17.60;99.90
16736;DHT22;17990;49.548;9.730;2023-08-01T01:18:45;17.60;99.90
16736;DHT22;17990;49.548;9.730;2023-08-01T01:21:13;17.60;99.90
16736;DHT22;17990;49.548;9.730;2023-08-01T01:23:40;17.50;99.90
16736;DHT22;17990;49.548;9.730;2023-08-01T01:26:07;17.50;99.90
16736;DHT22;17990;49.548;9.730;2023-08-01T01:28:36;17.50;99.90
16736;DHT22;17990;49.548;9.730;2023-08-01T01:31:04;17.50;99.90
16736;DHT22;17990;49.548;9.730;2023-08-01T01:33:30;17.50;99.90
16736;DHT22;17990;49.548;9.730;2023-08-01T01:36:00;17.50;99.90
16736;DHT22;17990;49.548;9.730;2023-08-01T01:38:28;17.50;99.90
16736;DHT22;17990;49.548;9.730;2023-08-01T01:40:55;17.50;99.90
16736;DHT22;17990;49.548;9.730;2023-08-01T01:43:21;17.50;99.90
16736;DHT22;17990;49.548;9.730;2023-08-01T01:45:48;17.50;99.90
16736;DHT22;17990;49.548;9.730;2023-08-01T01:48:15;17.50;99.90
16736;DHT22;17990;49.548;9.730;2023-08-01T01:50:41;17.50;99.90
16736;DHT22;17990;49.548;9.730;2023-08-01T01:53:08;17.50;99.90
16736;DHT22;17990;49.548;9.730;2023-08-01T01:55:36;17.60;99.90
16736;DHT22;17990;49.548;9.730;2023-08-01T01:58:03;17.70;99.90
16736;DHT22;17990;49.548;9.730;2023-08-01T02:00:30;17.70;99.90
16736;DHT22;17990;49.548;9.730;2023-08-01T02:02:57;17.70;99.90
16736;DHT22;17990;49.548;9.730;2023-08-01T02:05:23;17.70;99.90
16736;DHT22;17990;49.548;9.730;2023-08-01T02:07:50;17.70;99.90
16736;DHT22;17990;49.548;9.730;2023-08-01T02:10:16;17.70;99.90
16736;DHT22;17990;49.548;9.730;2023-08-01T02:12:45;17.70;99.90
16736;DHT22;17990;49.548;9.730;2023-08-01T02:15:11;17.70;99.90
16736;DHT22;17990;49.548;9.730;2023-08-01T02:17:39;17.70;99.90
16736;DHT22;17990;49.548;9.730;2023-08-01T02:20:06;17.70;99.90
16736;DHT22;17990;49.548;9.730;2023-08-01T02:22:33;17.60;99.90
16736;DHT22;17990;49.548;9.730;2023-08-01T02:25:00;17.60;99.90
16736;DHT22;17990;49.548;9.730;2023-08-01T02:27:27;17.70;99.90
16736;DHT22;17990;49.548;9.730;2023-08-01T02:29:55;17.70;99.90
16736;DHT22;17990;49.548;9.730;2023-08-01T02:32:21;17.70;99.90
16736;DHT22;17990;49.548;9.730;2023-08-01T02:34:48;17.70;99.90
16736;DHT22;17990;49.548;9.730;2023-08-01T02:37:15;17.70;99.90
16736;DHT22;17990;49.548;9.730;2023-08-01T02:39:42;17.70;99.90
16736;DHT22;17990;49.548;9.730;2023-08-01T02:42:08;17.70;99.90
16736;DHT22;17990;49.548;9.730;2023-08-01T02:44:35;17.60;99.90
16736;DHT22;17990;49.548;9.730;2023-08-01T02:47:03;17.60;99.90
16736;DHT22;17990;49.548;9.730;2023-08-01T02:49:31;17.50;99.90
16736;DHT22;17990;49.548;9.730;2023-08-01T02:51:58;17.50;99.90
16736;DHT22;17990;49.548;9.730;2023-08-01T02:54:25;17.50;99.90
16736;DHT22;17990;49.548;9.730;2023-08-01T02:56:51;17.50;99.90
16736;DHT22;17990;49.548;9.730;2023-08-01T02:59:18;17.50;99.90
16736;DHT22;17990;49.548;9.730;2023-08-01T03:01:45;17.50;99.90
16736;DHT22;17990;49.548;9.730;2023-08-01T03:04:13;17.50;99.90
16736;DHT22;17990;49.548;9.730;2023-08-01T03:06:40;17.50;99.90
16736;DHT22;17990;49.548;9.730;2023-08-01T03:09:07;17.50;99.90
16736;DHT22;17990;49.548;9.730;2023-08-01T03:11:35;17.50;99.90
16736;DHT22;17990;49.548;9.730;2023-08-01T03:14:02;17.50;99.90
16736;DHT22;17990;49.548;9.730;2023-08-01T03:16:29;17.50;99.90
16736;DHT22;17990;49.548;9.730;2023-08-01T03:18:56;17.40;99.90
16736;DHT22;17990;49.548;9.730;2023-08-01T03:21:26;17.40;99.90
16736;DHT22;17990;49.548;9.730;2023-08-01T03:23:52;17.40;99.90
16736;DHT22;17990;49.548;9.730;2023-08-01T03:26:19;17.40;99.90
16736;DHT22;17990;49.548;9.730;2023-08-01T03:28:46;17.40;99.90
16736;DHT22;17990;49.548;9.730;2023-08-01T03:31:13;17.40;99.90
16736;DHT22;17990;49.548;9.730;2023-08-01T03:33:40;17.40;99.90
16736;DHT22;17990;49.548;9.730;2023-08-01T03:36:07;17.40;99.90
16736;DHT22;17990;49.548;9.730;2023-08-01T03:38:35;17.40;99.90
16736;DHT22;17990;49.548;9.730;2023-08-01T03:41:02;17.40;99.90
16736;DHT22;17990;49.548;9.730;2023-08-01T03:43:29;17.30;99.90
16736;DHT22;17990;49.548;9.730;2023-08-01T03:45:56;17.30;99.90
16736;DHT22;17990;49.548;9.730;2023-08-01T03:48:22;17.40;99.90
16736;DHT22;17990;49.548;9.730;2023-08-01T03:50:49;17.40;99.90
16736;DHT22;17990;49.548;9.730;2023-08-01T03:53:16;17.40;99.90
16736;DHT22;17990;49.548;9.730;2023-08-01T03:55:46;17.40;99.90
16736;DHT22;17990;49.548;9.730;2023-08-01T03:58:13;17.40;99.90
16736;DHT22;17990;49.548;9.730;2023-08-01T04:00:40;17.40;99.90
16736;DHT22;17990;49.548;9.730;2023-08-01T04:03:07;17.40;99.90
16736;DHT22;17990;49.548;9.730;2023-08-01T04:05:34;17.40;99.90
16736;DHT22;17990;49.548;9.730;2023-08-01T04:08:01;17.50;99.90
16736;DHT22;17990;49.548;9.730;2023-08-01T04:10:28;17.50;99.90
16736;DHT22;17990;49.548;9.730;2023-08-01T04:12:56;17.50;99.90
16736;DHT22;17990;49.548;9.730;2023-08-01T04:15:23;17.60;99.90
16736;DHT22;17990;49.548;9.730;2023-08-01T04:17:49;17.60;99.90
16736;DHT22;17990;49.548;9.730;2023-08-01T04:20:16;17.60;99.90
16736;DHT22;17990;49.548;9.730;2023-08-01T04:22:43;17.60;99.90
16736;DHT22;17990;49.548;9.730;2023-08-01T04:25:09;17.70;99.90
16736;DHT22;17990;49.548;9.730;2023-08-01T04:27:36;17.70;99.90
16736;DHT22;17990;49.548;9.730;2023-08-01T04:30:06;17.60;99.90
16736;DHT22;17990;49.548;9.730;2023-08-01T04:32:32;17.70;99.90
16736;DHT22;17990;49.548;9.730;2023-08-01T04:34:59;17.70;99.90
16736;DHT22;17990;49.548;9.730;2023-08-01T04:37:26;17.60;99.90
16736;DHT22;17990;49.548;9.730;2023-08-01T04:39:52;17.60;99.90
16736;DHT22;17990;49.548;9.730;2023-08-01T04:42:19;17.60;99.90
16736;DHT22;17990;49.548;9.730;2023-08-01T04:44:46;17.60;99.90
16736;DHT22;17990;49.548;9.730;2023-08-01T04:47:14;17.60;99.90
16736;DHT22;17990;49.548;9.730;2023-08-01T04:49:41;17.60;99.90
16736;DHT22;17990;49.548;9.730;2023-08-01T04:52:08;17.60;99.90
16736;DHT22;17990;49.548;9.730;2023-08-01T04:54:34;17.60;99.90
16736;DHT22;17990;49.548;9.730;2023-08-01T04:57:01;17.60;99.90
16736;DHT22;17990;49.548;9.730;2023-08-01T04:59:28;17.60;99.90
16736;DHT22;17990;49.548;9.730;2023-08-01T05:01:55;17.70;99.90
16736;DHT22;17990;49.548;9.730;2023-08-01T05:04:23;17.70;99.90
16736;DHT22;17990;49.548;9.730;2023-08-01T05:06:50;17.60;99.90
16736;DHT22;17990;49.548;9.730;2023-08-01T05:09:17;17.60;99.90
16736;DHT22;17990;49.548;9.730;2023-08-01T05:11:43;17.60;99.90
16736;DHT22;17990;49.548;9.730;2023-08-01T05:14:10;17.60;99.90
16736;DHT22;17990;49.548;9.730;2023-08-01T05:16:37;17.60;99.90
16736;DHT22;17990;49.548;9.730;2023-08-01T05:19:03;17.60;99.90
16736;DHT22;17990;49.548;9.730;2023-08-01T05:21:31;17.60;99.90
16736;DHT22;17990;49.548;9.730;2023-08-01T05:23:58;17.50;99.90
16736;DHT22;17990;49.548;9.730;2023-08-01T05:26:25;17.50;99.90
16736;DHT22;17990;49.548;9.730;2023-08-01T05:28:51;17.50;99.90
16736;DHT22;17990;49.548;9.730;2023-08-01T05:31:18;17.50;99.90
16736;DHT22;17990;49.548;9.730;2023-08-01T05:33:45;17.50;99.90
16736;DHT22;17990;49.548;9.730;2023-08-01T05:36:12;17.50;99.90
16736;DHT22;17990;49.548;9.730;2023-08-01T05:38:40;17.50;99.90
16736;DHT22;17990;49.548;9.730;2023-08-01T05:41:06;17.40;99.90
16736;DHT22;17990;49.548;9.730;2023-08-01T05:43:33;17.50;99.90
16736;DHT22;17990;49.548;9.730;2023-08-01T05:46:00;17.50;99.90
16736;DHT22;17990;49.548;9.730;2023-08-01T05:48:27;17.50;99.90
16736;DHT22;17990;49.548;9.730;2023-08-01T05:50:53;17.50;99.90
16736;DHT22;17990;49.548;9.730;2023-08-01T05:53:21;17.50;99.90
16736;DHT22;17990;49.548;9.730;2023-08-01T05:55:49;17.50;99.90
16736;DHT22;17990;49.548;9.730;2023-08-01T05:58:16;17.50;99.90
16736;DHT22;17990;49.548;9.730;2023-08-01T06:00:43;17.50;99.90
16736;DHT22;17990;49.548;9.730;2023-08-01T06:03:09;17.50;99.90
16736;DHT22;17990;49.548;9.730;2023-08-01T06:05:36;17.50;99.90
16736;DHT22;17990;49.548;9.730;2023-08-01T06:08:05;17.50;99.90
16736;DHT22;17990;49.548;9.730;2023-08-01T06:10:32;17.50;99.90
16736;DHT22;17990;49.548;9.730;2023-08-01T06:13:00;17.60;99.90
16736;DHT22;17990;49.548;9.730;2023-08-01T06:15:26;17.60;99.90
16736;DHT22;17990;49.548;9.730;2023-08-01T06:17:53;17.60;99.90
16736;DHT22;17990;49.548;9.730;2023-08-01T06:20:20;17.60;99.90
16736;DHT22;17990;49.548;9.730;2023-08-01T06:22:47;17.60;99.90
16736;DHT22;17990;49.548;9.730;2023-08-01T06:25:13;17.60;99.90
16736;DHT22;17990;49.548;9.730;2023-08-01T06:27:40;17.60;99.90
16736;DHT22;17990;49.548;9.730;2023-08-01T06:30:09;17.60;99.90
16736;DHT22;17990;49.548;9.730;2023-08-01T06:32:36;17.60;99.90
16736;DHT22;17990;49.548;9.730;2023-08-01T06:35:03;17.60;99.90
16736;DHT22;17990;49.548;9.730;2023-08-01T06:37:30;17.60;99.90
16736;DHT22;17990;49.548;9.730;2023-08-01T06:39:58;17.60;99.90
16736;DHT22;17990;49.548;9.730;2023-08-01T06:42:24;17.60;99.90
16736;DHT22;17990;49.548;9.730;2023-08-01T06:44:51;17.50;99.90
16736;DHT22;17990;49.548;9.730;2023-08-01T06:47:19;17.50;99.90
16736;DHT22;17990;49.548;9.730;2023-08-01T06:49:46;17.50;99.90
16736;DHT22;17990;49.548;9.730;2023-08-01T06:52:13;17.50;99.90
16736;DHT22;17990;49.548;9.730;2023-08-01T06:54:39;17.50;99.90
16736;DHT22;17990;49.548;9.730;2023-08-01T06:57:06;17.50;99.90
16736;DHT22;17990;49.548;9.730;2023-08-01T06:59:33;17.50;99.90
16736;DHT22;17990;49.548;9.730;2023-08-01T07:02:00;17.40;99.90
16736;DHT22;17990;49.548;9.730;2023-08-01T07:04:28;17.40;99.90
16736;DHT22;17990;49.548;9.730;2023-08-01T07:06:55;17.40;99.90
16736;DHT22;17990;49.548;9.730;2023-08-01T07:09:22;17.40;99.90
16736;DHT22;17990;49.548;9.730;2023-08-01T07:11:48;17.40;99.90
16736;DHT22;17990;49.548;9.730;2023-08-01T07:14:15;17.40;99.90
16736;DHT22;17990;49.548;9.730;2023-08-01T07:16:42;17.50;99.90
16736;DHT22;17990;49.548;9.730;2023-08-01T07:19:08;17.40;99.90
16736;DHT22;17990;49.548;9.730;2023-08-01T07:21:36;17.50;99.90
16736;DHT22;17990;49.548;9.730;2023-08-01T07:24:04;17.50;99.90
16736;DHT22;17990;49.548;9.730;2023-08-01T07:26:31;17.50;99.90
16736;DHT22;17990;49.548;9.730;2023-08-01T07:28:58;17.50;99.90
16736;DHT22;17990;49.548;9.730;2023-08-01T07:31:25;17.60;99.90
16736;DHT22;17990;49.548;9.730;2023-08-01T07:33:51;17.60;99.90
16736;DHT22;17990;49.548;9.730;2023-08-01T07:36:18;17.70;99.90
16736;DHT22;17990;49.548;9.730;2023-08-01T07:38:48;17.70;99.90
16736;DHT22;17990;49.548;9.730;2023-08-01T07:41:15;17.70;99.90
16736;DHT22;17990;49.548;9.730;2023-08-01T07:43:41;17.80;99.90
16736;DHT22;17990;49.548;9.730;2023-08-01T07:46:08;17.90;99.90
16736;DHT22;17990;49.548;9.730;2023-08-01T07:48:37;17.80;99.90
16736;DHT22;17990;49.548;9.730;2023-08-01T07:51:04;17.80;99.90
16736;DHT22;17990;49.548;9.730;2023-08-01T07:53:33;17.70;99.90
16736;DHT22;17990;49.548;9.730;2023-08-01T07:56:01;17.70;99.90
16736;DHT22;17990;49.548;9.730;2023-08-01T07:58:28;17.70;99.90
16736;DHT22;17990;49.548;9.730;2023-08-01T08:00:54;17.70;99.90
16736;DHT22;17990;49.548;9.730;2023-08-01T08:03:21;17.70;99.90
16736;DHT22;17990;49.548;9.730;2023-08-01T08:05:48;17.80;99.90
16736;DHT22;17990;49.548;9.730;2023-08-01T08:08:15;17.90;99.90
16736;DHT22;17990;49.548;9.730;2023-08-01T08:10:42;17.90;99.90
16736;DHT22;17990;49.548;9.730;2023-08-01T08:13:10;18.00;99.90
16736;DHT22;17990;49.548;9.730;2023-08-01T08:15:37;18.00;99.90
16736;DHT22;17990;49.548;9.730;2023-08-01T08:18:03;18.00;99.90
16736;DHT22;17990;49.548;9.730;2023-08-01T08:20:30;18.00;99.90
16736;DHT22;17990;49.548;9.730;2023-08-01T08:22:57;18.20;99.90
16736;DHT22;17990;49.548;9.730;2023-08-01T08:25:24;18.40;99.90
16736;DHT22;17990;49.548;9.730;2023-08-01T08:27:50;18.60;99.90
16736;DHT22;17990;49.548;9.730;2023-08-01T08:30:19;18.80;99.90
16736;DHT22;17990;49.548;9.730;2023-08-01T08:32:45;18.90;99.90
16736;DHT22;17990;49.548;9.730;2023-08-01T08:35:12;19.00;99.90
16736;DHT22;17990;49.548;9.730;2023-08-01T08:37:39;19.10;99.90
16736;DHT22;17990;49.548;9.730;2023-08-01T08:40:06;19.20;99.90
16736;DHT22;17990;49.548;9.730;2023-08-01T08:42:33;19.40;99.90
16736;DHT22;17990;49.548;9.730;2023-08-01T08:45:01;19.60;99.90
16736;DHT22;17990;49.548;9.730;2023-08-01T08:47:31;19.70;99.90
16736;DHT22;17990;49.548;9.730;2023-08-01T08:49:58;19.70;99.90
16736;DHT22;17990;49.548;9.730;2023-08-01T08:52:25;19.50;99.90
16736;DHT22;17990;49.548;9.730;2023-08-01T08:54:52;19.40;99.90
16736;DHT22;17990;49.548;9.730;2023-08-01T08:57:20;19.40;99.90
16736;DHT22;17990;49.548;9.730;2023-08-01T08:59:48;19.40;99.90
16736;DHT22;17990;49.548;9.730;2023-08-01T09:02:16;19.70;99.90
16736;DHT22;17990;49.548;9.730;2023-08-01T09:04:44;19.90;99.90
16736;DHT22;17990;49.548;9.730;2023-08-01T09:07:11;20.00;99.90
16736;DHT22;17990;49.548;9.730;2023-08-01T09:09:40;20.10;99.90
16736;DHT22;17990;49.548;9.730;2023-08-01T09:12:08;20.00;99.90
16736;DHT22;17990;49.548;9.730;2023-08-01T09:14:35;19.90;99.90
16736;DHT22;17990;49.548;9.730;2023-08-01T09:17:06;19.80;99.90
16736;DHT22;17990;49.548;9.730;2023-08-01T09:19:33;20.10;99.90
16736;DHT22;17990;49.548;9.730;2023-08-01T09:22:01;21.20;99.90
16736;DHT22;17990;49.548;9.730;2023-08-01T09:24:28;22.90;99.90
16736;DHT22;17990;49.548;9.730;2023-08-01T09:27:02;23.30;99.90
16736;DHT22;17990;49.548;9.730;2023-08-01T09:29:30;23.10;99.90
16736;DHT22;17990;49.548;9.730;2023-08-01T09:31:58;22.70;99.90
16736;DHT22;17990;49.548;9.730;2023-08-01T09:34:26;22.10;99.90
16736;DHT22;17990;49.548;9.730;2023-08-01T09:36:58;21.80;99.90
16736;DHT22;17990;49.548;9.730;2023-08-01T09:39:27;21.80;99.90
16736;DHT22;17990;49.548;9.730;2023-08-01T09:41:57;21.70;99.90
16736;DHT22;17990;49.548;9.730;2023-08-01T09:44:25;21.90;99.90
16736;DHT22;17990;49.548;9.730;2023-08-01T09:46:56;22.00;99.90
16736;DHT22;17990;49.548;9.730;2023-08-01T09:49:23;21.90;99.90
16736;DHT22;17990;49.548;9.730;2023-08-01T09:51:50;21.70;99.90
16736;DHT22;17990;49.548;9.730;2023-08-01T09:54:18;21.40;99.90
16736;DHT22;17990;49.548;9.730;2023-08-01T09:56:47;21.00;99.90
16736;DHT22;17990;49.548;9.730;2023-08-01T09:59:18;19.90;99.90
16736;DHT22;17990;49.548;9.730;2023-08-01T10:01:47;18.80;99.90
16736;DHT22;17990;49.548;9.730;2023-08-01T10:04:17;18.20;99.90
16736;DHT22;17990;49.548;9.730;2023-08-01T10:06:46;18.20;99.90
16736;DHT22;17990;49.548;9.730;2023-08-01T10:09:16;18.80;99.90
16736;DHT22;17990;49.548;9.730;2023-08-01T10:11:44;19.60;99.90
16736;DHT22;17990;49.548;9.730;2023-08-01T10:14:12;20.10;99.90
16736;DHT22;17990;49.548;9.730;2023-08-01T10:16:40;20.60;99.90
16736;DHT22;17990;49.548;9.730;2023-08-01T10:19:09;20.70;99.90
16736;DHT22;17990;49.548;9.730;2023-08-01T10:21:37;20.70;99.90
16736;DHT22;17990;49.548;9.730;2023-08-01T10:24:06;21.00;99.90
16736;DHT22;17990;49.548;9.730;2023-08-01T10:26:33;21.30;99.90
16736;DHT22;17990;49.548;9.730;2023-08-01T10:29:00;21.50;99.90
16736;DHT22;17990;49.548;9.730;2023-08-01T10:31:29;21.60;99.90
16736;DHT22;17990;49.548;9.730;2023-08-01T10:34:04;21.60;99.90
16736;DHT22;17990;49.548;9.730;2023-08-01T10:36:32;22.20;99.90
16736;DHT22;17990;49.548;9.730;2023-08-01T10:39:01;22.30;99.90
16736;DHT22;17990;49.548;9.730;2023-08-01T10:41:29;22.50;99.90
16736;DHT22;17990;49.548;9.730;2023-08-01T10:44:07;22.60;99.90
16736;DHT22;17990;49.548;9.730;2023-08-01T10:46:47;23.10;99.90
16736;DHT22;17990;49.548;9.730;2023-08-01T10:49:14;23.50;99.90
16736;DHT22;17990;49.548;9.730;2023-08-01T10:51:43;23.80;99.90
16736;DHT22;17990;49.548;9.730;2023-08-01T10:54:18;23.90;99.90
16736;DHT22;17990;49.548;9.730;2023-08-01T10:56:47;23.90;99.90
16736;DHT22;17990;49.548;9.730;2023-08-01T10:59:13;23.70;99.90
16736;DHT22;17990;49.548;9.730;2023-08-01T11:01:47;23.60;99.90
16736;DHT22;17990;49.548;9.730;2023-08-01T11:04:14;23.20;99.90
16736;DHT22;17990;49.548;9.730;2023-08-01T11:06:45;23.10;99.90
16736;DHT22;17990;49.548;9.730;2023-08-01T11:09:16;22.80;99.90
16736;DHT22;17990;49.548;9.730;2023-08-01T11:11:43;22.60;99.90
16736;DHT22;17990;49.548;9.730;2023-08-01T11:14:11;22.60;99.90
16736;DHT22;17990;49.548;9.730;2023-08-01T11:16:38;22.60;99.90
16736;DHT22;17990;49.548;9.730;2023-08-01T11:19:17;22.80;99.90
16736;DHT22;17990;49.548;9.730;2023-08-01T11:21:44;23.40;99.90
16736;DHT22;17990;49.548;9.730;2023-08-01T11:24:11;23.60;99.90
16736;DHT22;17990;49.548;9.730;2023-08-01T11:26:40;23.80;99.90
16736;DHT22;17990;49.548;9.730;2023-08-01T11:29:08;23.80;99.90
16736;DHT22;17990;49.548;9.730;2023-08-01T11:31:35;24.20;99.90
16736;DHT22;17990;49.548;9.730;2023-08-01T11:34:02;24.20;99.90
16736;DHT22;17990;49.548;9.730;2023-08-01T11:36:30;24.30;99.90
16736;DHT22;17990;49.548;9.730;2023-08-01T11:38:59;24.10;99.90
16736;DHT22;17990;49.548;9.730;2023-08-01T11:41:26;23.90;99.90
16736;DHT22;17990;49.548;9.730;2023-08-01T11:43:54;23.60;99.90
16736;DHT22;17990;49.548;9.730;2023-08-01T11:46:23;23.40;99.90
16736;DHT22;17990;49.548;9.730;2023-08-01T11:48:56;23.10;99.90
16736;DHT22;17990;49.548;9.730;2023-08-01T11:51:23;22.90;99.90
16736;DHT22;17990;49.548;9.730;2023-08-01T11:53:59;22.80;99.90
16736;DHT22;17990;49.548;9.730;2023-08-01T11:56:26;22.80;99.90
16736;DHT22;17990;49.548;9.730;2023-08-01T11:58:53;22.80;99.90
16736;DHT22;17990;49.548;9.730;2023-08-01T12:01:20;22.80;99.90
16736;DHT22;17990;49.548;9.730;2023-08-01T12:03:48;22.80;99.90
16736;DHT22;17990;49.548;9.730;2023-08-01T12:06:17;22.80;99.90
16736;DHT22;17990;49.548;9.730;2023-08-01T12:08:46;22.70;99.90
16736;DHT22;17990;49.548;9.730;2023-08-01T12:11:22;22.80;99.90
16736;DHT22;17990;49.548;9.730;2023-08-01T12:14:01;23.20;99.90
16736;DHT22;17990;49.548;9.730;2023-08-01T12:16:28;23.30;99.90
16736;DHT22;17990;49.548;9.730;2023-08-01T12:18:55;23.30;99.90
16736;DHT22;17990;49.548;9.730;2023-08-01T12:21:21;22.90;99.90
16736;DHT22;17990;49.548;9.730;2023-08-01T12:23:48;22.20;99.90
16736;DHT22;17990;49.548;9.730;2023-08-01T12:26:15;21.30;99.90
16736;DHT22;17990;49.548;9.730;2023-08-01T12:28:43;20.70;99.90
16736;DHT22;17990;49.548;9.730;2023-08-01T12:31:10;20.30;99.90
16736;DHT22;17990;49.548;9.730;2023-08-01T12:33:37;20.30;99.90
16736;DHT22;17990;49.548;9.730;2023-08-01T12:36:04;20.80;99.90
16736;DHT22;17990;49.548;9.730;2023-08-01T12:38:30;21.50;99.90
16736;DHT22;17990;49.548;9.730;2023-08-01T12:40:57;22.10;99.90
16736;DHT22;17990;49.548;9.730;2023-08-01T12:43:24;22.40;99.90
16736;DHT22;17990;49.548;9.730;2023-08-01T12:45:52;22.70;99.90
16736;DHT22;17990;49.548;9.730;2023-08-01T12:48:19;22.70;99.90
16736;DHT22;17990;49.548;9.730;2023-08-01T12:50:46;22.60;99.90
16736;DHT22;17990;49.548;9.730;2023-08-01T12:53:13;22.60;99.90
16736;DHT22;17990;49.548;9.730;2023-08-01T12:55:42;22.70;99.90
16736;DHT22;17990;49.548;9.730;2023-08-01T12:58:09;22.70;99.90
16736;DHT22;17990;49.548;9.730;2023-08-01T13:00:36;22.60;99.90
16736;DHT22;17990;49.548;9.730;2023-08-01T13:03:04;22.50;99.90
16736;DHT22;17990;49.548;9.730;2023-08-01T13:05:33;22.60;99.90
16736;DHT22;17990;49.548;9.730;2023-08-01T13:08:00;22.70;99.90
16736;DHT22;17990;49.548;9.730;2023-08-01T13:10:29;22.70;99.90
16736;DHT22;17990;49.548;9.730;2023-08-01T13:12:56;22.90;99.90
16736;DHT22;17990;49.548;9.730;2023-08-01T13:15:23;23.20;99.90
16736;DHT22;17990;49.548;9.730;2023-08-01T13:17:50;23.60;99.90
16736;DHT22;17990;49.548;9.730;2023-08-01T13:20:18;23.90;99.90
16736;DHT22;17990;49.548;9.730;2023-08-01T13:22:46;23.90;99.90
16736;DHT22;17990;49.548;9.730;2023-08-01T13:25:14;24.10;99.90
16736;DHT22;17990;49.548;9.730;2023-08-01T13:27:41;23.80;99.90
16736;DHT22;17990;49.548;9.730;2023-08-01T13:30:09;23.70;99.90
16736;DHT22;17990;49.548;9.730;2023-08-01T13:32:39;23.70;99.90
16736;DHT22;17990;49.548;9.730;2023-08-01T13:35:06;24.20;99.90
16736;DHT22;17990;49.548;9.730;2023-08-01T13:37:34;24.40;99.90
16736;DHT22;17990;49.548;9.730;2023-08-01T13:40:02;24.40;99.90
16736;DHT22;17990;49.548;9.730;2023-08-01T13:42:28;24.60;99.90
16736;DHT22;17990;49.548;9.730;2023-08-01T13:44:56;24.60;99.90
16736;DHT22;17990;49.548;9.730;2023-08-01T13:47:23;24.70;99.90
16736;DHT22;17990;49.548;9.730;2023-08-01T13:49:49;24.60;99.90
16736;DHT22;17990;49.548;9.730;2023-08-01T13:52:16;24.30;99.90
16736;DHT22;17990;49.548;9.730;2023-08-01T13:54:44;23.80;99.90
16736;DHT22;17990;49.548;9.730;2023-08-01T13:57:11;23.50;99.90
16736;DHT22;17990;49.548;9.730;2023-08-01T13:59:37;23.50;99.90
16736;DHT22;17990;49.548;9.730;2023-08-01T14:02:05;23.80;99.90
16736;DHT22;17990;49.548;9.730;2023-08-01T14:04:32;24.20;99.90
16736;DHT22;17990;49.548;9.730;2023-08-01T14:06:58;24.40;99.90
16736;DHT22;17990;49.548;9.730;2023-08-01T14:09:25;24.70;99.90
16736;DHT22;17990;49.548;9.730;2023-08-01T14:11:53;25.10;99.90
16736;DHT22;17990;49.548;9.730;2023-08-01T14:14:20;25.10;99.90
16736;DHT22;17990;49.548;9.730;2023-08-01T14:16:47;25.10;99.90
16736;DHT22;17990;49.548;9.730;2023-08-01T14:19:14;24.90;99.90
16736;DHT22;17990;49.548;9.730;2023-08-01T14:21:41;24.50;99.90
16736;DHT22;17990;49.548;9.730;2023-08-01T14:24:07;24.20;99.90
16736;DHT22;17990;49.548;9.730;2023-08-01T14:26:34;24.00;99.90
16736;DHT22;17990;49.548;9.730;2023-08-01T14:29:02;23.90;99.90
16736;DHT22;17990;49.548;9.730;2023-08-01T14:31:29;23.70;99.90
16736;DHT22;17990;49.548;9.730;2023-08-01T14:33:56;23.80;99.90
16736;DHT22;17990;49.548;9.730;2023-08-01T14:36:22;23.90;99.90
16736;DHT22;17990;49.548;9.730;2023-08-01T14:38:49;23.80;99.90
16736;DHT22;17990;49.548;9.730;2023-08-01T14:41:20;23.80;99.90
16736;DHT22;17990;49.548;9.730;2023-08-01T14:43:46;24.00;99.90
16736;DHT22;17990;49.548;9.730;2023-08-01T14:46:14;24.20;99.90
16736;DHT22;17990;49.548;9.730;2023-08-01T14:48:41;24.20;99.90
16736;DHT22;17990;49.548;9.730;2023-08-01T14:51:08;24.00;99.90
16736;DHT22;17990;49.548;9.730;2023-08-01T14:53:34;24.00;99.90
16736;DHT22;17990;49.548;9.730;2023-08-01T14:56:01;24.00;99.90
16736;DHT22;17990;49.548;9.730;2023-08-01T14:58:32;24.10;99.90
16736;DHT22;17990;49.548;9.730;2023-08-01T15:00:58;24.20;99.90
16736;DHT22;17990;49.548;9.730;2023-08-01T15:03:27;24.20;99.90
16736;DHT22;17990;49.548;9.730;2023-08-01T15:05:53;24.20;99.90
16736;DHT22;17990;49.548;9.730;2023-08-01T15:08:20;24.20;99.90
16736;DHT22;17990;49.548;9.730;2023-08-01T15:10:47;24.30;99.90
16736;DHT22;17990;49.548;9.730;2023-08-01T15:13:13;24.40;99.90
16736;DHT22;17990;49.548;9.730;2023-08-01T15:15:41;24.40;99.90
16736;DHT22;17990;49.548;9.730;2023-08-01T15:18:07;24.50;99.90
16736;DHT22;17990;49.548;9.730;2023-08-01T15:20:35;24.50;99.90
16736;DHT22;17990;49.548;9.730;2023-08-01T15:23:05;24.40;99.90
16736;DHT22;17990;49.548;9.730;2023-08-01T15:25:34;24.40;99.90
16736;DHT22;17990;49.548;9.730;2023-08-01T15:28:00;24.50;99.90
16736;DHT22;17990;49.548;9.730;2023-08-01T15:30:27;24.90;99.90